Terminal Aerodrome Forecast
Issued by NWS Blacksburg, VA

Current Version | Previous Version | Graphics & Text | Print | Product List | Glossary On
Versions: 1 2 3 4 5 6 7 8 9 10 11 12 13 14 15 16 17 18 19 20 21 22 23 24 25 26 27 28 29 30 31
000
FTUS41 KRNK 250025 AAA
TAFBLF
TAF AMD
KBLF 250025Z 2500/2524 14006KT P6SM -SHRA SCT008 OVC040
      TEMPO 2500/2502 4SM SHRA BKN018
     FM250400 22006KT 4SM TSRA OVC020CB
     FM250800 26006KT 5SM BR VCSH BKN035
     FM251400 24009KT P6SM BKN035
     FM251600 24012KT P6SM VCSH BKN035=

USA.gov is the U.S. government's official web portal to all federal, state and local government web resources and services.